sensor_id;sensor_type;location;lat;lon;timestamp;P1;durP1;ratioP1;P2;durP2;ratioP2
21089;SDS011;10703;51.020;6.128;2023-04-09T00:01:38;53.97;;;36.10;;
21089;SDS011;10703;51.020;6.128;2023-04-09T00:04:05;58.57;;;37.00;;
21089;SDS011;10703;51.020;6.128;2023-04-09T00:06:31;54.93;;;36.03;;
21089;SDS011;10703;51.020;6.128;2023-04-09T00:08:58;56.47;;;37.53;;
21089;SDS011;10703;51.020;6.128;2023-04-09T00:11:24;59.37;;;38.27;;
21089;SDS011;10703;51.020;6.128;2023-04-09T00:13:51;55.80;;;35.47;;
21089;SDS011;10703;51.020;6.128;2023-04-09T00:16:18;59.33;;;37.30;;
21089;SDS011;10703;51.020;6.128;2023-04-09T00:18:44;60.63;;;38.70;;
21089;SDS011;10703;51.020;6.128;2023-04-09T00:21:11;66.83;;;39.40;;
21089;SDS011;10703;51.020;6.128;2023-04-09T00:23:38;68.63;;;38.50;;
21089;SDS011;10703;51.020;6.128;2023-04-09T00:26:04;61.93;;;38.60;;
21089;SDS011;10703;51.020;6.128;2023-04-09T00:28:31;60.20;;;38.83;;
21089;SDS011;10703;51.020;6.128;2023-04-09T00:30:58;64.57;;;39.83;;
21089;SDS011;10703;51.020;6.128;2023-04-09T00:33:24;65.07;;;39.83;;
21089;SDS011;10703;51.020;6.128;2023-04-09T00:35:51;68.00;;;40.80;;
21089;SDS011;10703;51.020;6.128;2023-04-09T00:38:18;65.60;;;40.40;;
21089;SDS011;10703;51.020;6.128;2023-04-09T00:40:47;75.83;;;42.67;;
21089;SDS011;10703;51.020;6.128;2023-04-09T00:43:18;72.27;;;41.70;;
21089;SDS011;10703;51.020;6.128;2023-04-09T00:45:45;70.57;;;42.10;;
21089;SDS011;10703;51.020;6.128;2023-04-09T00:48:12;74.43;;;41.97;;
21089;SDS011;10703;51.020;6.128;2023-04-09T00:50:41;76.53;;;45.40;;
21089;SDS011;10703;51.020;6.128;2023-04-09T00:53:08;83.77;;;45.33;;
21089;SDS011;10703;51.020;6.128;2023-04-09T00:55:38;89.67;;;45.83;;
21089;SDS011;10703;51.020;6.128;2023-04-09T00:58:05;87.97;;;47.87;;
21089;SDS011;10703;51.020;6.128;2023-04-09T01:00:32;89.70;;;47.17;;
21089;SDS011;10703;51.020;6.128;2023-04-09T01:02:59;90.50;;;47.83;;
21089;SDS011;10703;51.020;6.128;2023-04-09T01:05:29;84.57;;;47.63;;
21089;SDS011;10703;51.020;6.128;2023-04-09T01:08:08;85.23;;;45.87;;
21089;SDS011;10703;51.020;6.128;2023-04-09T01:13:38;84.37;;;44.63;;
21089;SDS011;10703;51.020;6.128;2023-04-09T01:16:13;78.37;;;43.77;;
21089;SDS011;10703;51.020;6.128;2023-04-09T01:21:18;80.97;;;43.77;;
21089;SDS011;10703;51.020;6.128;2023-04-09T01:26:56;77.50;;;43.50;;
21089;SDS011;10703;51.020;6.128;2023-04-09T01:29:34;85.27;;;45.17;;
21089;SDS011;10703;51.020;6.128;2023-04-09T01:32:06;86.83;;;44.03;;
21089;SDS011;10703;51.020;6.128;2023-04-09T01:34:34;87.10;;;46.20;;
21089;SDS011;10703;51.020;6.128;2023-04-09T01:37:02;88.10;;;46.73;;
21089;SDS011;10703;51.020;6.128;2023-04-09T01:39:29;89.40;;;48.20;;
21089;SDS011;10703;51.020;6.128;2023-04-09T01:41:56;83.07;;;45.80;;
21089;SDS011;10703;51.020;6.128;2023-04-09T01:44:23;90.23;;;46.17;;
21089;SDS011;10703;51.020;6.128;2023-04-09T01:46:51;89.30;;;46.60;;
21089;SDS011;10703;51.020;6.128;2023-04-09T01:49:19;95.30;;;47.00;;
21089;SDS011;10703;51.020;6.128;2023-04-09T01:51:47;89.43;;;48.03;;
21089;SDS011;10703;51.020;6.128;2023-04-09T01:54:14;96.60;;;49.03;;
21089;SDS011;10703;51.020;6.128;2023-04-09T01:56:45;84.53;;;46.63;;
21089;SDS011;10703;51.020;6.128;2023-04-09T01:59:13;91.17;;;46.53;;
21089;SDS011;10703;51.020;6.128;2023-04-09T02:01:42;86.10;;;46.37;;
21089;SDS011;10703;51.020;6.128;2023-04-09T02:06:52;87.77;;;48.97;;
21089;SDS011;10703;51.020;6.128;2023-04-09T02:09:39;86.73;;;48.23;;
21089;SDS011;10703;51.020;6.128;2023-04-09T02:12:09;94.67;;;47.93;;
21089;SDS011;10703;51.020;6.128;2023-04-09T02:14:38;96.30;;;48.77;;
21089;SDS011;10703;51.020;6.128;2023-04-09T02:17:06;102.27;;;48.50;;
21089;SDS011;10703;51.020;6.128;2023-04-09T02:19:43;89.53;;;48.50;;
21089;SDS011;10703;51.020;6.128;2023-04-09T02:22:11;88.57;;;47.13;;
21089;SDS011;10703;51.020;6.128;2023-04-09T02:24:38;95.40;;;48.00;;
21089;SDS011;10703;51.020;6.128;2023-04-09T02:27:06;97.40;;;45.23;;
21089;SDS011;10703;51.020;6.128;2023-04-09T02:29:33;99.07;;;49.17;;
21089;SDS011;10703;51.020;6.128;2023-04-09T02:32:00;101.90;;;49.27;;
21089;SDS011;10703;51.020;6.128;2023-04-09T02:34:26;100.57;;;50.73;;
21089;SDS011;10703;51.020;6.128;2023-04-09T02:36:53;97.10;;;47.00;;
21089;SDS011;10703;51.020;6.128;2023-04-09T02:39:19;100.40;;;48.00;;
21089;SDS011;10703;51.020;6.128;2023-04-09T02:41:46;97.43;;;48.30;;
21089;SDS011;10703;51.020;6.128;2023-04-09T02:44:12;96.37;;;46.20;;
21089;SDS011;10703;51.020;6.128;2023-04-09T02:46:39;97.70;;;46.83;;
21089;SDS011;10703;51.020;6.128;2023-04-09T02:49:06;96.73;;;47.83;;
21089;SDS011;10703;51.020;6.128;2023-04-09T02:51:36;86.80;;;45.10;;
21089;SDS011;10703;51.020;6.128;2023-04-09T02:54:03;97.30;;;47.20;;
21089;SDS011;10703;51.020;6.128;2023-04-09T02:56:29;96.67;;;48.07;;
21089;SDS011;10703;51.020;6.128;2023-04-09T02:58:56;94.80;;;48.03;;
21089;SDS011;10703;51.020;6.128;2023-04-09T03:01:22;107.37;;;50.00;;
21089;SDS011;10703;51.020;6.128;2023-04-09T03:03:49;98.50;;;47.20;;
21089;SDS011;10703;51.020;6.128;2023-04-09T03:06:16;98.73;;;47.23;;
21089;SDS011;10703;51.020;6.128;2023-04-09T03:08:43;102.30;;;48.57;;
21089;SDS011;10703;51.020;6.128;2023-04-09T03:11:10;101.20;;;47.03;;
21089;SDS011;10703;51.020;6.128;2023-04-09T03:13:37;98.60;;;48.43;;
21089;SDS011;10703;51.020;6.128;2023-04-09T03:16:03;106.30;;;49.73;;
21089;SDS011;10703;51.020;6.128;2023-04-09T03:18:30;106.07;;;49.50;;
21089;SDS011;10703;51.020;6.128;2023-04-09T03:20:57;102.33;;;49.03;;
21089;SDS011;10703;51.020;6.128;2023-04-09T03:23:23;105.23;;;49.50;;
21089;SDS011;10703;51.020;6.128;2023-04-09T03:25:58;99.80;;;48.57;;
21089;SDS011;10703;51.020;6.128;2023-04-09T03:28:28;104.43;;;50.13;;
21089;SDS011;10703;51.020;6.128;2023-04-09T03:30:55;111.03;;;50.37;;
21089;SDS011;10703;51.020;6.128;2023-04-09T03:33:22;114.50;;;53.30;;
21089;SDS011;10703;51.020;6.128;2023-04-09T03:35:50;111.60;;;49.30;;
21089;SDS011;10703;51.020;6.128;2023-04-09T03:38:17;108.20;;;51.27;;
21089;SDS011;10703;51.020;6.128;2023-04-09T03:40:44;110.87;;;51.50;;
21089;SDS011;10703;51.020;6.128;2023-04-09T03:43:11;112.70;;;52.20;;
21089;SDS011;10703;51.020;6.128;2023-04-09T03:45:37;133.87;;;52.90;;
21089;SDS011;10703;51.020;6.128;2023-04-09T03:48:04;127.37;;;54.37;;
21089;SDS011;10703;51.020;6.128;2023-04-09T03:50:31;121.57;;;52.33;;
21089;SDS011;10703;51.020;6.128;2023-04-09T03:53:02;125.23;;;54.40;;
21089;SDS011;10703;51.020;6.128;2023-04-09T03:55:28;123.20;;;53.27;;
21089;SDS011;10703;51.020;6.128;2023-04-09T03:57:55;121.87;;;53.40;;
21089;SDS011;10703;51.020;6.128;2023-04-09T04:00:21;113.23;;;50.97;;
21089;SDS011;10703;51.020;6.128;2023-04-09T04:02:48;127.90;;;54.00;;
21089;SDS011;10703;51.020;6.128;2023-04-09T04:05:15;124.57;;;52.63;;
21089;SDS011;10703;51.020;6.128;2023-04-09T04:07:42;117.23;;;53.33;;
21089;SDS011;10703;51.020;6.128;2023-04-09T04:10:09;116.07;;;53.37;;
21089;SDS011;10703;51.020;6.128;2023-04-09T04:12:36;126.10;;;53.90;;
21089;SDS011;10703;51.020;6.128;2023-04-09T04:15:03;119.30;;;52.27;;
21089;SDS011;10703;51.020;6.128;2023-04-09T04:17:30;120.27;;;53.63;;
21089;SDS011;10703;51.020;6.128;2023-04-09T04:19:56;108.03;;;50.73;;
21089;SDS011;10703;51.020;6.128;2023-04-09T04:22:23;123.60;;;52.97;;
21089;SDS011;10703;51.020;6.128;2023-04-09T04:24:51;114.37;;;50.70;;
21089;SDS011;10703;51.020;6.128;2023-04-09T04:27:18;108.83;;;49.77;;
21089;SDS011;10703;51.020;6.128;2023-04-09T04:29:44;115.30;;;51.80;;
21089;SDS011;10703;51.020;6.128;2023-04-09T04:32:11;115.77;;;52.60;;
21089;SDS011;10703;51.020;6.128;2023-04-09T04:34:37;110.63;;;50.90;;
21089;SDS011;10703;51.020;6.128;2023-04-09T04:37:04;122.83;;;52.43;;
21089;SDS011;10703;51.020;6.128;2023-04-09T04:39:30;108.67;;;51.30;;
21089;SDS011;10703;51.020;6.128;2023-04-09T04:41:57;106.37;;;48.97;;
21089;SDS011;10703;51.020;6.128;2023-04-09T04:44:23;109.50;;;50.63;;
21089;SDS011;10703;51.020;6.128;2023-04-09T04:46:50;106.60;;;49.77;;
21089;SDS011;10703;51.020;6.128;2023-04-09T04:49:16;110.67;;;49.23;;
21089;SDS011;10703;51.020;6.128;2023-04-09T04:51:43;104.67;;;49.13;;
21089;SDS011;10703;51.020;6.128;2023-04-09T04:54:09;100.30;;;47.53;;
21089;SDS011;10703;51.020;6.128;2023-04-09T04:56:36;99.33;;;48.57;;
21089;SDS011;10703;51.020;6.128;2023-04-09T04:59:03;103.30;;;48.93;;
21089;SDS011;10703;51.020;6.128;2023-04-09T05:01:29;98.50;;;48.00;;
21089;SDS011;10703;51.020;6.128;2023-04-09T05:03:56;91.70;;;46.20;;
21089;SDS011;10703;51.020;6.128;2023-04-09T05:06:22;103.70;;;48.43;;
21089;SDS011;10703;51.020;6.128;2023-04-09T05:08:49;110.60;;;47.80;;
21089;SDS011;10703;51.020;6.128;2023-04-09T05:11:17;99.30;;;46.20;;
21089;SDS011;10703;51.020;6.128;2023-04-09T05:13:43;104.57;;;46.53;;
21089;SDS011;10703;51.020;6.128;2023-04-09T05:16:17;96.20;;;46.27;;
21089;SDS011;10703;51.020;6.128;2023-04-09T05:18:44;104.80;;;48.33;;
21089;SDS011;10703;51.020;6.128;2023-04-09T05:21:11;117.57;;;51.17;;
21089;SDS011;10703;51.020;6.128;2023-04-09T05:23:38;101.20;;;49.20;;
21089;SDS011;10703;51.020;6.128;2023-04-09T05:26:05;121.93;;;52.70;;
21089;SDS011;10703;51.020;6.128;2023-04-09T05:28:31;127.63;;;52.93;;
21089;SDS011;10703;51.020;6.128;2023-04-09T05:30:58;129.13;;;52.77;;
21089;SDS011;10703;51.020;6.128;2023-04-09T05:33:24;117.53;;;50.80;;
21089;SDS011;10703;51.020;6.128;2023-04-09T05:35:51;127.77;;;51.63;;
21089;SDS011;10703;51.020;6.128;2023-04-09T05:38:18;126.00;;;51.63;;
21089;SDS011;10703;51.020;6.128;2023-04-09T05:40:44;126.57;;;50.67;;
21089;SDS011;10703;51.020;6.128;2023-04-09T05:43:11;117.03;;;49.97;;
21089;SDS011;10703;51.020;6.128;2023-04-09T05:45:37;125.77;;;51.53;;
21089;SDS011;10703;51.020;6.128;2023-04-09T05:48:04;128.30;;;52.93;;
21089;SDS011;10703;51.020;6.128;2023-04-09T05:50:31;127.93;;;53.03;;
21089;SDS011;10703;51.020;6.128;2023-04-09T05:53:12;138.97;;;53.60;;
21089;SDS011;10703;51.020;6.128;2023-04-09T05:55:39;137.00;;;54.77;;
21089;SDS011;10703;51.020;6.128;2023-04-09T05:58:05;143.37;;;55.10;;
21089;SDS011;10703;51.020;6.128;2023-04-09T06:00:32;139.70;;;54.33;;
21089;SDS011;10703;51.020;6.128;2023-04-09T06:02:59;138.87;;;56.50;;
21089;SDS011;10703;51.020;6.128;2023-04-09T06:05:26;135.97;;;55.53;;
21089;SDS011;10703;51.020;6.128;2023-04-09T06:07:53;146.80;;;58.33;;
21089;SDS011;10703;51.020;6.128;2023-04-09T06:10:19;133.97;;;54.87;;
21089;SDS011;10703;51.020;6.128;2023-04-09T06:12:46;150.73;;;58.87;;
21089;SDS011;10703;51.020;6.128;2023-04-09T06:15:13;141.43;;;57.77;;
21089;SDS011;10703;51.020;6.128;2023-04-09T06:17:39;144.40;;;55.40;;
21089;SDS011;10703;51.020;6.128;2023-04-09T06:20:06;148.53;;;57.20;;
21089;SDS011;10703;51.020;6.128;2023-04-09T06:22:33;155.47;;;59.53;;
21089;SDS011;10703;51.020;6.128;2023-04-09T06:24:59;155.23;;;59.13;;
21089;SDS011;10703;51.020;6.128;2023-04-09T06:27:26;154.70;;;62.33;;
21089;SDS011;10703;51.020;6.128;2023-04-09T06:29:53;148.30;;;60.53;;
21089;SDS011;10703;51.020;6.128;2023-04-09T06:32:19;158.70;;;62.47;;
21089;SDS011;10703;51.020;6.128;2023-04-09T06:34:46;148.57;;;60.73;;
21089;SDS011;10703;51.020;6.128;2023-04-09T06:37:13;156.33;;;60.97;;
21089;SDS011;10703;51.020;6.128;2023-04-09T06:39:39;155.53;;;61.17;;
21089;SDS011;10703;51.020;6.128;2023-04-09T06:42:23;153.40;;;60.63;;
21089;SDS011;10703;51.020;6.128;2023-04-09T06:44:50;162.33;;;63.77;;
21089;SDS011;10703;51.020;6.128;2023-04-09T06:47:16;160.07;;;61.57;;
21089;SDS011;10703;51.020;6.128;2023-04-09T06:49:43;156.40;;;61.33;;
21089;SDS011;10703;51.020;6.128;2023-04-09T06:52:09;146.50;;;58.27;;
21089;SDS011;10703;51.020;6.128;2023-04-09T06:54:36;157.17;;;60.73;;
21089;SDS011;10703;51.020;6.128;2023-04-09T06:57:02;154.77;;;58.63;;
21089;SDS011;10703;51.020;6.128;2023-04-09T06:59:31;139.60;;;59.27;;
21089;SDS011;10703;51.020;6.128;2023-04-09T07:01:59;147.73;;;61.57;;
21089;SDS011;10703;51.020;6.128;2023-04-09T07:04:26;158.63;;;62.13;;
21089;SDS011;10703;51.020;6.128;2023-04-09T07:06:52;154.63;;;60.87;;
21089;SDS011;10703;51.020;6.128;2023-04-09T07:09:20;142.90;;;60.67;;
21089;SDS011;10703;51.020;6.128;2023-04-09T07:11:46;146.77;;;63.63;;
21089;SDS011;10703;51.020;6.128;2023-04-09T07:14:13;137.27;;;54.77;;
21089;SDS011;10703;51.020;6.128;2023-04-09T07:16:39;116.83;;;54.07;;
21089;SDS011;10703;51.020;6.128;2023-04-09T07:19:08;113.63;;;56.33;;
21089;SDS011;10703;51.020;6.128;2023-04-09T07:21:35;99.57;;;52.60;;
21089;SDS011;10703;51.020;6.128;2023-04-09T07:24:02;93.90;;;51.37;;
21089;SDS011;10703;51.020;6.128;2023-04-09T07:26:28;71.57;;;45.07;;
21089;SDS011;10703;51.020;6.128;2023-04-09T07:28:58;65.07;;;40.30;;
21089;SDS011;10703;51.020;6.128;2023-04-09T07:31:24;60.47;;;40.07;;
21089;SDS011;10703;51.020;6.128;2023-04-09T07:33:52;56.90;;;38.17;;
21089;SDS011;10703;51.020;6.128;2023-04-09T07:36:18;43.20;;;30.33;;
21089;SDS011;10703;51.020;6.128;2023-04-09T07:38:45;42.80;;;29.47;;
21089;SDS011;10703;51.020;6.128;2023-04-09T07:41:12;32.73;;;25.70;;
21089;SDS011;10703;51.020;6.128;2023-04-09T07:43:39;36.17;;;25.90;;
21089;SDS011;10703;51.020;6.128;2023-04-09T07:46:06;33.60;;;24.63;;
21089;SDS011;10703;51.020;6.128;2023-04-09T07:48:32;34.47;;;25.70;;
21089;SDS011;10703;51.020;6.128;2023-04-09T07:50:59;36.13;;;26.53;;
21089;SDS011;10703;51.020;6.128;2023-04-09T07:53:26;33.10;;;25.13;;
21089;SDS011;10703;51.020;6.128;2023-04-09T07:55:52;36.23;;;25.93;;
21089;SDS011;10703;51.020;6.128;2023-04-09T07:58:19;33.40;;;25.10;;
21089;SDS011;10703;51.020;6.128;2023-04-09T08:00:46;37.73;;;24.53;;
21089;SDS011;10703;51.020;6.128;2023-04-09T08:03:16;32.27;;;23.77;;
21089;SDS011;10703;51.020;6.128;2023-04-09T08:05:44;39.37;;;26.63;;
21089;SDS011;10703;51.020;6.128;2023-04-09T08:08:11;35.17;;;24.67;;
21089;SDS011;10703;51.020;6.128;2023-04-09T08:10:37;30.30;;;23.90;;
21089;SDS011;10703;51.020;6.128;2023-04-09T08:13:04;31.57;;;23.20;;
21089;SDS011;10703;51.020;6.128;2023-04-09T08:15:31;29.60;;;22.37;;
21089;SDS011;10703;51.020;6.128;2023-04-09T08:17:57;30.83;;;21.83;;
21089;SDS011;10703;51.020;6.128;2023-04-09T08:20:24;28.23;;;21.73;;
21089;SDS011;10703;51.020;6.128;2023-04-09T08:22:50;28.43;;;21.97;;
21089;SDS011;10703;51.020;6.128;2023-04-09T08:25:17;26.63;;;20.83;;
21089;SDS011;10703;51.020;6.128;2023-04-09T08:27:44;24.77;;;20.30;;
21089;SDS011;10703;51.020;6.128;2023-04-09T08:30:11;26.33;;;20.23;;
21089;SDS011;10703;51.020;6.128;2023-04-09T08:32:38;28.40;;;20.43;;
21089;SDS011;10703;51.020;6.128;2023-04-09T08:35:05;27.57;;;19.50;;
21089;SDS011;10703;51.020;6.128;2023-04-09T08:37:32;25.63;;;19.57;;
21089;SDS011;10703;51.020;6.128;2023-04-09T08:39:59;25.60;;;19.73;;
21089;SDS011;10703;51.020;6.128;2023-04-09T08:42:26;21.87;;;18.03;;
21089;SDS011;10703;51.020;6.128;2023-04-09T08:44:54;23.67;;;17.87;;
21089;SDS011;10703;51.020;6.128;2023-04-09T08:47:20;19.60;;;16.23;;
21089;SDS011;10703;51.020;6.128;2023-04-09T08:49:48;23.87;;;17.63;;
21089;SDS011;10703;51.020;6.128;2023-04-09T08:52:15;20.90;;;16.07;;
21089;SDS011;10703;51.020;6.128;2023-04-09T08:54:44;18.43;;;15.73;;
21089;SDS011;10703;51.020;6.128;2023-04-09T08:57:11;19.37;;;15.23;;
21089;SDS011;10703;51.020;6.128;2023-04-09T08:59:37;15.03;;;13.40;;
21089;SDS011;10703;51.020;6.128;2023-04-09T09:02:10;15.23;;;12.53;;
21089;SDS011;10703;51.020;6.128;2023-04-09T09:04:44;18.30;;;13.27;;
21089;SDS011;10703;51.020;6.128;2023-04-09T09:07:11;14.60;;;12.53;;
21089;SDS011;10703;51.020;6.128;2023-04-09T09:09:54;17.10;;;12.80;;
21089;SDS011;10703;51.020;6.128;2023-04-09T09:12:35;18.17;;;13.17;;
21089;SDS011;10703;51.020;6.128;2023-04-09T09:15:04;14.50;;;12.50;;
21089;SDS011;10703;51.020;6.128;2023-04-09T09:17:52;13.60;;;11.97;;
21089;SDS011;10703;51.020;6.128;2023-04-09T09:20:23;14.70;;;13.10;;
21089;SDS011;10703;51.020;6.128;2023-04-09T09:22:51;15.50;;;13.37;;
21089;SDS011;10703;51.020;6.128;2023-04-09T09:25:20;13.43;;;11.40;;
21089;SDS011;10703;51.020;6.128;2023-04-09T09:27:49;16.70;;;13.23;;
21089;SDS011;10703;51.020;6.128;2023-04-09T09:30:24;13.97;;;12.03;;
21089;SDS011;10703;51.020;6.128;2023-04-09T09:35:53;15.17;;;11.93;;
21089;SDS011;10703;51.020;6.128;2023-04-09T09:38:19;15.60;;;12.80;;
21089;SDS011;10703;51.020;6.128;2023-04-09T09:40:46;13.50;;;11.30;;
21089;SDS011;10703;51.020;6.128;2023-04-09T09:43:14;12.10;;;10.33;;
21089;SDS011;10703;51.020;6.128;2023-04-09T09:45:41;10.88;;;9.52;;
21089;SDS011;10703;51.020;6.128;2023-04-09T09:48:11;8.77;;;7.88;;
21089;SDS011;10703;51.020;6.128;2023-04-09T09:50:39;10.55;;;7.85;;
21089;SDS011;10703;51.020;6.128;2023-04-09T09:53:09;8.93;;;7.95;;
21089;SDS011;10703;51.020;6.128;2023-04-09T09:55:37;8.25;;;7.45;;
21089;SDS011;10703;51.020;6.128;2023-04-09T09:58:15;8.38;;;7.07;;
21089;SDS011;10703;51.020;6.128;2023-04-09T10:00:48;10.63;;;7.20;;
21089;SDS011;10703;51.020;6.128;2023-04-09T10:03:24;7.90;;;7.10;;
21089;SDS011;10703;51.020;6.128;2023-04-09T10:05:52;10.93;;;7.03;;
21089;SDS011;10703;51.020;6.128;2023-04-09T10:08:20;7.72;;;6.57;;
21089;SDS011;10703;51.020;6.128;2023-04-09T10:10:47;7.80;;;7.00;;
21089;SDS011;10703;51.020;6.128;2023-04-09T10:13:17;7.45;;;6.45;;
21089;SDS011;10703;51.020;6.128;2023-04-09T10:15:49;7.38;;;6.57;;
21089;SDS011;10703;51.020;6.128;2023-04-09T10:18:17;8.40;;;7.22;;
21089;SDS011;10703;51.020;6.128;2023-04-09T10:20:55;9.10;;;7.97;;
21089;SDS011;10703;51.020;6.128;2023-04-09T10:23:37;7.70;;;6.80;;
21089;SDS011;10703;51.020;6.128;2023-04-09T10:26:09;7.65;;;6.80;;
21089;SDS011;10703;51.020;6.128;2023-04-09T10:28:36;8.23;;;7.43;;
21089;SDS011;10703;51.020;6.128;2023-04-09T10:31:03;9.13;;;6.82;;
21089;SDS011;10703;51.020;6.128;2023-04-09T10:33:32;8.18;;;7.30;;
21089;SDS011;10703;51.020;6.128;2023-04-09T10:36:05;7.40;;;6.57;;
21089;SDS011;10703;51.020;6.128;2023-04-09T10:38:36;8.13;;;6.60;;
21089;SDS011;10703;51.020;6.128;2023-04-09T10:44:05;9.43;;;7.38;;
21089;SDS011;10703;51.020;6.128;2023-04-09T10:46:44;9.63;;;7.60;;
21089;SDS011;10703;51.020;6.128;2023-04-09T10:49:13;9.65;;;7.97;;
21089;SDS011;10703;51.020;6.128;2023-04-09T10:51:46;7.75;;;6.95;;
21089;SDS011;10703;51.020;6.128;2023-04-09T10:54:38;8.18;;;7.38;;
21089;SDS011;10703;51.020;6.128;2023-04-09T10:57:09;9.55;;;7.53;;
21089;SDS011;10703;51.020;6.128;2023-04-09T10:59:41;8.57;;;6.95;;
21089;SDS011;10703;51.020;6.128;2023-04-09T11:05:17;7.70;;;6.90;;
21089;SDS011;10703;51.020;6.128;2023-04-09T11:10:31;6.88;;;6.15;;
21089;SDS011;10703;51.020;6.128;2023-04-09T11:12:59;6.72;;;6.13;;
21089;SDS011;10703;51.020;6.128;2023-04-09T11:15:26;6.60;;;6.00;;
21089;SDS011;10703;51.020;6.128;2023-04-09T11:17:53;7.22;;;6.55;;
21089;SDS011;10703;51.020;6.128;2023-04-09T11:20:21;6.80;;;6.20;;
21089;SDS011;10703;51.020;6.128;2023-04-09T11:22:50;7.70;;;6.60;;
21089;SDS011;10703;51.020;6.128;2023-04-09T11:25:18;7.55;;;6.85;;
21089;SDS011;10703;51.020;6.128;2023-04-09T11:27:49;6.90;;;6.20;;
21089;SDS011;10703;51.020;6.128;2023-04-09T11:30:16;7.32;;;6.63;;
21089;SDS011;10703;51.020;6.128;2023-04-09T11:32:43;7.63;;;6.85;;
21089;SDS011;10703;51.020;6.128;2023-04-09T11:35:11;8.55;;;6.40;;
21089;SDS011;10703;51.020;6.128;2023-04-09T11:37:38;7.35;;;6.55;;
21089;SDS011;10703;51.020;6.128;2023-04-09T11:40:06;7.05;;;6.35;;
21089;SDS011;10703;51.020;6.128;2023-04-09T11:42:39;6.28;;;5.72;;
21089;SDS011;10703;51.020;6.128;2023-04-09T11:45:06;7.07;;;6.38;;
21089;SDS011;10703;51.020;6.128;2023-04-09T11:47:34;8.15;;;5.80;;
21089;SDS011;10703;51.020;6.128;2023-04-09T11:50:01;7.57;;;6.00;;
21089;SDS011;10703;51.020;6.128;2023-04-09T11:52:29;6.13;;;5.53;;
21089;SDS011;10703;51.020;6.128;2023-04-09T11:55:01;7.65;;;6.50;;
21089;SDS011;10703;51.020;6.128;2023-04-09T11:57:36;7.05;;;6.38;;
21089;SDS011;10703;51.020;6.128;2023-04-09T12:00:10;8.38;;;6.20;;
21089;SDS011;10703;51.020;6.128;2023-04-09T12:02:38;5.93;;;5.32;;
21089;SDS011;10703;51.020;6.128;2023-04-09T12:05:09;6.38;;;5.78;;
21089;SDS011;10703;51.020;6.128;2023-04-09T12:07:37;6.50;;;5.90;;
21089;SDS011;10703;51.020;6.128;2023-04-09T12:10:06;6.32;;;5.72;;
21089;SDS011;10703;51.020;6.128;2023-04-09T12:12:39;7.32;;;5.88;;
21089;SDS011;10703;51.020;6.128;2023-04-09T12:15:11;6.88;;;6.28;;
21089;SDS011;10703;51.020;6.128;2023-04-09T12:17:45;8.20;;;7.40;;
21089;SDS011;10703;51.020;6.128;2023-04-09T12:20:13;7.53;;;6.82;;
21089;SDS011;10703;51.020;6.128;2023-04-09T12:22:39;8.07;;;7.28;;
21089;SDS011;10703;51.020;6.128;2023-04-09T12:25:06;7.80;;;7.00;;
21089;SDS011;10703;51.020;6.128;2023-04-09T12:27:33;8.48;;;6.55;;
21089;SDS011;10703;51.020;6.128;2023-04-09T12:30:00;8.02;;;7.07;;
21089;SDS011;10703;51.020;6.128;2023-04-09T12:32:27;7.85;;;7.10;;
21089;SDS011;10703;51.020;6.128;2023-04-09T12:34:53;8.30;;;7.13;;
21089;SDS011;10703;51.020;6.128;2023-04-09T12:37:20;8.02;;;7.30;;
21089;SDS011;10703;51.020;6.128;2023-04-09T12:39:47;8.75;;;7.85;;
21089;SDS011;10703;51.020;6.128;2023-04-09T12:42:14;7.60;;;6.90;;
21089;SDS011;10703;51.020;6.128;2023-04-09T12:44:41;7.82;;;7.03;;
21089;SDS011;10703;51.020;6.128;2023-04-09T12:47:07;7.68;;;6.88;;
21089;SDS011;10703;51.020;6.128;2023-04-09T12:49:34;8.90;;;7.13;;
21089;SDS011;10703;51.020;6.128;2023-04-09T12:52:01;7.13;;;6.47;;
21089;SDS011;10703;51.020;6.128;2023-04-09T12:54:27;7.43;;;6.28;;
21089;SDS011;10703;51.020;6.128;2023-04-09T12:56:54;7.38;;;6.75;;
21089;SDS011;10703;51.020;6.128;2023-04-09T12:59:20;7.22;;;6.63;;
21089;SDS011;10703;51.020;6.128;2023-04-09T13:01:47;8.00;;;7.20;;
21089;SDS011;10703;51.020;6.128;2023-04-09T13:04:14;7.15;;;6.43;;
21089;SDS011;10703;51.020;6.128;2023-04-09T13:06:41;7.63;;;6.93;;
21089;SDS011;10703;51.020;6.128;2023-04-09T13:09:07;8.77;;;7.88;;
21089;SDS011;10703;51.020;6.128;2023-04-09T13:11:34;15.27;;;10.85;;
21089;SDS011;10703;51.020;6.128;2023-04-09T13:14:01;7.78;;;6.97;;
21089;SDS011;10703;51.020;6.128;2023-04-09T13:16:27;9.02;;;7.13;;
21089;SDS011;10703;51.020;6.128;2023-04-09T13:18:54;6.95;;;6.30;;
21089;SDS011;10703;51.020;6.128;2023-04-09T13:21:20;6.63;;;6.03;;
21089;SDS011;10703;51.020;6.128;2023-04-09T13:23:47;6.90;;;6.20;;
21089;SDS011;10703;51.020;6.128;2023-04-09T13:26:14;7.10;;;6.43;;
21089;SDS011;10703;51.020;6.128;2023-04-09T13:28:41;8.43;;;7.63;;
21089;SDS011;10703;51.020;6.128;2023-04-09T13:31:07;7.10;;;6.40;;
21089;SDS011;10703;51.020;6.128;2023-04-09T13:33:34;7.88;;;7.07;;
21089;SDS011;10703;51.020;6.128;2023-04-09T13:36:01;7.25;;;6.55;;
21089;SDS011;10703;51.020;6.128;2023-04-09T13:38:27;9.73;;;8.40;;
21089;SDS011;10703;51.020;6.128;2023-04-09T13:40:54;8.43;;;7.53;;
21089;SDS011;10703;51.020;6.128;2023-04-09T13:43:20;9.77;;;8.20;;
21089;SDS011;10703;51.020;6.128;2023-04-09T13:45:53;6.90;;;6.30;;
21089;SDS011;10703;51.020;6.128;2023-04-09T13:48:20;6.90;;;6.30;;
21089;SDS011;10703;51.020;6.128;2023-04-09T13:50:46;6.35;;;5.82;;
21089;SDS011;10703;51.020;6.128;2023-04-09T13:53:13;7.47;;;6.55;;
21089;SDS011;10703;51.020;6.128;2023-04-09T13:55:40;10.07;;;7.65;;
21089;SDS011;10703;51.020;6.128;2023-04-09T13:58:06;6.90;;;6.15;;
21089;SDS011;10703;51.020;6.128;2023-04-09T14:00:33;6.50;;;5.88;;
21089;SDS011;10703;51.020;6.128;2023-04-09T14:03:01;6.57;;;5.95;;
21089;SDS011;10703;51.020;6.128;2023-04-09T14:05:30;8.07;;;6.20;;
21089;SDS011;10703;51.020;6.128;2023-04-09T14:07:57;7.05;;;6.00;;
21089;SDS011;10703;51.020;6.128;2023-04-09T14:10:24;7.00;;;6.35;;
21089;SDS011;10703;51.020;6.128;2023-04-09T14:12:52;6.85;;;6.15;;
21089;SDS011;10703;51.020;6.128;2023-04-09T14:15:19;6.68;;;6.05;;
21089;SDS011;10703;51.020;6.128;2023-04-09T14:17:45;7.60;;;5.85;;
21089;SDS011;10703;51.020;6.128;2023-04-09T14:20:12;7.00;;;6.30;;
21089;SDS011;10703;51.020;6.128;2023-04-09T14:22:38;12.60;;;11.32;;
21089;SDS011;10703;51.020;6.128;2023-04-09T14:25:06;6.57;;;5.97;;
21089;SDS011;10703;51.020;6.128;2023-04-09T14:27:33;6.65;;;5.97;;
21089;SDS011;10703;51.020;6.128;2023-04-09T14:29:59;8.35;;;6.90;;
21089;SDS011;10703;51.020;6.128;2023-04-09T14:32:26;9.70;;;7.68;;
21089;SDS011;10703;51.020;6.128;2023-04-09T14:34:53;6.47;;;5.82;;
21089;SDS011;10703;51.020;6.128;2023-04-09T14:37:19;6.75;;;6.15;;
21089;SDS011;10703;51.020;6.128;2023-04-09T14:39:46;7.30;;;6.60;;
21089;SDS011;10703;51.020;6.128;2023-04-09T14:42:13;7.70;;;7.00;;
21089;SDS011;10703;51.020;6.128;2023-04-09T14:44:40;13.00;;;8.02;;
21089;SDS011;10703;51.020;6.128;2023-04-09T14:47:06;13.75;;;6.72;;
21089;SDS011;10703;51.020;6.128;2023-04-09T14:49:33;7.90;;;7.20;;
21089;SDS011;10703;51.020;6.128;2023-04-09T14:52:00;7.10;;;6.50;;
21089;SDS011;10703;51.020;6.128;2023-04-09T14:54:26;7.35;;;6.10;;